Springdale, Nebraska
Current Conditions -  °F | °C
As of 12:53 AM on Sunday 26 Oct 2014 (Local Time) from KODX Reporting Station
Clear Clear  
Wind Chill: 43°   Ceiling: Unl
Heat Index: 45°   Visibility: 10mi
Dew Point: 39°   Wind: 5mph
Humidity: 80%   Direction: 160°SSE
Pressure: 29.93"   Gusts: NA
Location:  41.579°N, 98.9733°W
Report Text: KODX 260553Z AUTO 16004KT 10SM CLR 07/04 A2993 RMK AO2 SLP136 T00720039 10161 20056 402220028 58023
Loading
Personal Weather Stations






























Interactive Weather Map
Tropical Storm Tracking
New forecast layout! Learn more

10-Day Weather Forecast

Advertisements
Track Severe Weather on mobile